Tiempo atmosférico en la estación meteorológica de Puerto De Leitariegos, Asturias (1550 m.)



Fecha
DESCASC
Temp. máxima en grados centígrados (hora)
DESCASC
Temp. mínima en grados centígrados (hora)
DESCASC
Temp. media en grados centígrados
DESCASC
Racha de viento máxima en m/sg (hora)
DESCASC
Velocidad máxima media en intervalos de 10 minutos(hora)
DESCASC
Precipitaciones diarias en mm
DESCASC
Precipitaciones de 00:00 a 06:00 en mm
DESCASC
Precipitaciones de 06:00 a 12:00 en mm
DESCASC
Precipitaciones de 12:00 a 18:00 en mm
DESCASC
Precipitaciones de 18:00 a 24:00 en mm
DESCASC
26-07-2019 14.5 (16:50) 8.2 (00:00) 11.3 8.61 (15:20) 5.56 (10:10) 0.4 0.2 0.2 0 0
27-07-2019 12.9 (13:50) 7.5 (00:00) 10.2 9.17 (16:30) 5.28 (17:20) 8.2 2.4 5.6 0.2 0
28-07-2019 19 (16:40) 4.1 (00:00) 11.5 9.17 (14:20) 3.61 (14:20) 0 0 0 0 0
29-07-2019 14.8 (16:30) 5.9 (00:00) 10.4 13.06 (14:10) 6.94 (14:40) 0 0 0 0 0
30-07-2019 14.3 (16:30) 4.8 (00:00) 9.6 10.83 (05:20) 7.78 (05:20) 0 0 0 0 0
31-07-2019 16.8 (12:20) 5.4 (00:00) 11.1 8.33 (16:30) 5.83 (17:30) 0 0 0 0 0
01-08-2019 18.4 (10:50) 8.7 (00:00) 13.5 9.44 (19:10) 6.39 (18:20) 0 0 0 0 0
02-08-2019 21.9 (13:10) 9.2 (00:00) 15.5 9.17 (17:50) 5.56 (17:20) 0 0 0 0 0
03-08-2019 23.5 (14:40) 13 (00:00) 18.3 10.56 (18:50) 7.22 (19:50) 0 0 0 0 0
04-08-2019 20.9 (12:20) 9.4 (00:00) 15.1 9.44 (18:20) 6.39 (19:30) 0 0 0 0 0
05-08-2019 21.6 (16:00) 8.6 (00:00) 15.1 8.61 (16:40) 5.56 (19:30) 0 0 0 0 0
06-08-2019 21.9 (14:00) 11.2 (00:00) 16.5 10 (18:00) 6.39 (17:50) 2 0 0 0.8 1.2
07-08-2019 17.8 (12:00) 9.1 (00:00) 13.4 11.39 (23:20) 5.56 (23:20) 2.6 0 0 1.8 0.8
08-08-2019 18.3 (13:50) 13.2 (00:00) 15.7 -- (--) -- (--) 5.4 1.8 0.2 3 0.4
09-08-2019 15.8 (14:20) 9.2 (00:00) 12.5 23.89 (06:30) 11.94 (13:50) 4.6 4.4 0.2 0 0
10-08-2019 17.2 (16:10) 6.1 (00:00) 11.7 -- (--) -- (--) 0 0 0 0 0
11-08-2019 13.7 (15:50) 5 (00:00) 9.3 12.78 (16:30) 7.5 (16:40) 1.8 0.2 0 1.6 0
12-08-2019 13 (15:40) 4.6 (00:00) 8.8 9.72 (09:50) 6.11 (04:00) 0 0 0 0 0
13-08-2019 17.2 (16:10) 4.7 (00:00) 11 8.33 (16:40) 5.28 (14:20) 0 0 0 0 0
14-08-2019 20.2 (15:20) 8.4 (00:00) 14.3 8.61 (17:10) 5.28 (18:30) 0 0 0 0 0
15-08-2019 19.8 (15:20) 8.3 (00:00) 14 10.28 (17:30) 6.39 (17:40) 0 0 0 0 0
16-08-2019 23.7 (17:20) 10.4 (00:00) 17.1 8.61 (18:30) 5.28 (17:50) 0 0 0 0 0
17-08-2019 23.7 (15:20) 11.1 (00:00) 17.4 11.11 (17:50) 6.11 (17:50) 0 0 0 0 0
18-08-2019 15.7 (00:30) 7.5 (00:00) 11.6 11.39 (06:20) 5.28 (20:40) 5.2 0 1.8 3.4 0
19-08-2019 14.4 (16:30) 4.7 (00:00) 9.5 9.17 (17:40) 6.39 (17:10) 0 0 0 0 0
20-08-2019 16.5 (16:20) 5.6 (00:00) 11 8.06 (18:10) 5.28 (17:10) 0 0 0 0 0
21-08-2019 18.9 (12:40) 7.4 (00:00) 13.1 9.44 (17:00) 6.39 (17:00) 0 0 0 0 0
22-08-2019 22.9 (13:20) 9.4 (00:00) 16.1 8.89 (17:00) 5.28 (15:20) 0 0 0 0 0
23-08-2019 25.3 (16:30) 12.4 (00:00) 18.8 8.06 (19:40) 4.72 (19:50) 0 0 0 0 0
24-08-2019 25.6 (16:00) 14.2 (00:00) 19.9 13.33 (13:50) 5.56 (14:30) 0 0 0 0 0

Gráficas

Temp. máximas Temp. mínimas Temp. medias Precipitaciones Rachas de viento máximas Velocidades máximas media en intervalos de 10 minutos

Datos horarios

Fecha y hora oficial Temperatura (ºC) Velocidad del viento (km/h) Dirección del viento Racha (km/h) Dirección de racha Precipitación (mm) Presión (hPa) Tendencia (hPa) Humedad (%)
2019-08-24 23:00:00 17.3 4 Oeste 28 Nordeste 0 853.1 0.3 57
2019-08-24 22:00:00 16.8 14 Noroeste 23 Noroeste 0 853 0.2 64
2019-08-24 21:00:00 16.2 10 Noroeste 24 Norte 0 852.8 -0.1 83
2019-08-24 20:00:00 18.4 16 Noroeste 27 Noroeste 0 852.8 -0.1 76
2019-08-24 19:00:00 20.4 15 Noroeste 27 Noroeste 0 852.8 -0.4 68
2019-08-24 18:00:00 22.1 16 Noroeste 27 Noroeste 0 852.9 -0.4 58
2019-08-24 17:00:00 24.2 16 Noroeste 32 Noroeste 0 852.9 -0.6 33
2019-08-24 16:00:00 25.3 7 Norte 42 Sudeste 0 853.2 -0.5 31
2019-08-24 15:00:00 24.9 15 Sudeste 40 Sudeste 0 853.3 -0.3 32
2019-08-24 14:00:00 24 11 Este 48 Sudeste 0 853.5 0 35
2019-08-24 13:00:00 23.3 19 Sudeste 37 Sudeste 0 853.7 0.1 35
2019-08-24 12:00:00 22.9 15 Sudeste 25 Sudeste 0 853.6 0.1 39
2019-08-24 11:00:00 21.3 10 Sudeste 19 Sudeste 0 853.5 0.1 42
2019-08-24 10:00:00 19.1 10 Sudeste 17 Sudeste 0 853.6 0.3 44
2019-08-24 09:00:00 16.5 7 Sudeste 14 Sur 0 853.5 0.2 50
2019-08-24 08:00:00 14.5 8 Sur 14 Sur 0 853.4 -0.2 55
2019-08-24 07:00:00 14.8 9 Sur 16 Sur 0 853.3 -0.4 59
2019-08-24 06:00:00 14.7 10 Sur 15 Sur 0 853.3 -0.6 62
2019-08-24 05:00:00 15.1 6 Sur 13 Sur 0 853.6 -0.6 61
2019-08-24 04:00:00 15 5 Sur 13 Sur 0 853.7 -0.4 60
2019-08-24 03:00:00 15.3 6 Sur 12 Sur 0 853.9 -0.3 64
2019-08-24 02:00:00 15.3 6 Sur 12 Sur 0 854.2 0.2 64
2019-08-24 01:00:00 14.8 2 Sudeste 6 Sudeste 0 854.1 0.5 64
2019-08-24 00:00:00 14.9 2 Noroeste 12 Noroeste 0 854.2 0.7 63
2019-08-23 23:00:00 15.4 4 Noroeste 9 Oeste 0 854 0.6 62
2019-08-23 22:00:00 16.7 6 Noroeste 12 Noroeste 0 853.6 0 57
2019-08-23 21:00:00 18.7 9 Noroeste 23 Oeste 0 853.5 -0.3 54
2019-08-23 20:00:00 21.1 16 Noroeste 29 Oeste 0 853.4 -0.5 46
2019-08-23 19:00:00 23.8 15 Noroeste 25 Noroeste 0 853.6 -0.5 34
2019-08-23 18:00:00 24.8 15 Noroeste 23 Noroeste 0 853.8 -0.6 32
2019-08-23 17:00:00 24.6 5 Nordeste 17 Noroeste 0 853.9 -0.7 33
2019-08-23 16:00:00 24.8 11 Noroeste 23 Noroeste 0 854.1 -0.6 32
2019-08-23 15:00:00 24.4 10 Noroeste 23 Noroeste 0 854.4 -0.3 31
2019-08-23 14:00:00 25.1 5 Nordeste 23 Sudeste 0 854.6 -0.2 36
2019-08-23 13:00:00 23.5 13 Sudeste 28 Sudeste 0 854.7 0.1 34
2019-08-23 12:00:00 22.7 13 Sudeste 20 Sudeste 0 854.7 0.2 34
2019-08-23 11:00:00 21.2 6 Sudeste 12 Este 0 854.8 0.3 33
2019-08-23 10:00:00 17.9 6 Sudeste 10 Sudeste 0 854.6 0.3 36
2019-08-23 09:00:00 14.2 4 Sudeste 10 Sur 0 854.5 0.1 48
2019-08-23 08:00:00 13.2 5 Sur 15 Sur 0 854.5 0 39
2019-08-23 07:00:00 13.1 6 Sur 11 Sur 0 854.3 -0.3 38
2019-08-23 06:00:00 13.1 5 Sudeste 12 Sur 0 854.4 -0.3 37
2019-08-23 05:00:00 13.6 6 Sur 13 Sur 0 854.5 -0.4 35
2019-08-23 04:00:00 14.4 8 Sur 14 Sur 0 854.6 -0.5 30
2019-08-23 03:00:00 14.3 8 Sur 13 Sur 0 854.7 -0.5 34
2019-08-23 02:00:00 14.2 6 Sur 13 Sur 0 854.9 -0.4 40
2019-08-23 01:00:00 13.4 6 Sudoeste 12 Sudoeste 0 855.1 0.1 50
2019-08-23 00:00:00 13.6 4 Noroeste 11 Sudoeste 0 855.2 0.5 57
2019-08-22 23:00:00 14.3 4 Oeste 13 Noroeste 0 855.3 0.6 73
2019-08-22 22:00:00 15 8 Noroeste 14 Noroeste 0 855 0.2 76
2019-08-22 21:00:00 16.4 11 Noroeste 14 Noroeste 0 854.7 -0.3 74
2019-08-22 20:00:00 19.8 8 Noroeste 21 Noroeste 0 854.7 -0.4 60
2019-08-22 19:00:00 21.2 14 Noroeste 29 Oeste 0 854.8 -0.5 56
2019-08-22 18:00:00 21.7 17 Noroeste 30 Noroeste 0 855 -0.4 52
2019-08-22 17:00:00 22.3 18 Noroeste 32 Noroeste 0 855.1 -0.6 51
2019-08-22 16:00:00 22.1 16 Noroeste 27 Noroeste 0 855.3 -0.5 51
2019-08-22 15:00:00 21.9 14 Noroeste 25 Noroeste 0 855.4 -0.5 44
2019-08-22 14:00:00 22 7 Noroeste 20 Este 0 855.7 0 48
2019-08-22 13:00:00 22.4 10 Sudeste 19 Sudeste 0 855.8 0 30
2019-08-22 12:00:00 20.6 9 Sudeste 14 Sudeste 0 855.9 0.3 42
2019-08-22 11:00:00 18.4 9 Sudeste 14 Sudeste 0 855.7 0.4 55
2019-08-22 10:00:00 15 9 Sudeste 13 Sudeste 0 855.8 0.7 71
2019-08-22 09:00:00 12.3 9 Sudeste 12 Sudeste 0 855.6 0.3 77
2019-08-22 08:00:00 10.4 10 Sudeste 12 Sudeste 0 855.3 0 79
2019-08-22 07:00:00 10.7 7 Sudeste 13 Sudeste 0 855.1 -0.1 79
2019-08-22 06:00:00 10.8 9 Sudeste 11 Sudeste 0 855.3 0.1 79
2019-08-22 05:00:00 11.7 7 Sudeste 14 Sur 0 855.3 -0.2 77
2019-08-22 04:00:00 12.1 9 Sur 16 Sur 0 855.2 -0.3 74
2019-08-22 03:00:00 12.1 10 Sur 15 Sur 0 855.2 -0.2 73
2019-08-22 02:00:00 11.1 6 Sudeste 13 Sudeste 0 855.5 0.1 71
2019-08-22 01:00:00 10.1 9 Sudeste 14 Sudeste 0 855.5 0.4 81
2019-08-22 00:00:00 10.8 6 Sudeste 9 Sur 0 855.4 0.7 74
2019-08-21 23:00:00 10.3 3 Norte 17 Norte 0 855.4 1 82
2019-08-21 22:00:00 12.3 12 Noroeste 23 Noroeste 0 855.1 0.9 93
2019-08-21 21:00:00 13.1 16 Noroeste 22 Noroeste 0 854.7 0.5 90
2019-08-21 20:00:00 14.4 16 Noroeste 27 Noroeste 0 854.4 0.1 85
2019-08-21 19:00:00 16.7 18 Noroeste 30 Noroeste 0 854.2 -0.1 73
2019-08-21 18:00:00 17.4 21 Noroeste 32 Noroeste 0 854.2 -0.1 69
2019-08-21 17:00:00 17.9 23 Noroeste 34 Noroeste 0 854.3 0.1 66
2019-08-21 16:00:00 18.2 20 Noroeste 29 Noroeste 0 854.3 0.2 67
2019-08-21 15:00:00 17.3 19 Noroeste 28 Norte 0 854.3 -0.1 66
2019-08-21 14:00:00 17.5 17 Noroeste 26 Noroeste 0 854.2 -0.1 65
2019-08-21 13:00:00 18.7 10 Noroeste 15 Noroeste 0 854.1 0 48
2019-08-21 12:00:00 17.6 10 Sudeste 17 Sudeste 0 854.4 0.4 44
2019-08-21 11:00:00 15.5 9 Sudeste 17 Sur 0 854.3 0.3 53
2019-08-21 10:00:00 12.4 11 Sudeste 18 Sur 0 854.1 0.2 69
2019-08-21 09:00:00 8.2 10 Sudeste 14 Sur 0 854 0.2 87
2019-08-21 08:00:00 7.7 9 Sudeste 15 Sur 0 854 0.2 90
2019-08-21 07:00:00 8.2 8 Sudeste 10 Sudeste 0 853.9 -0.1 87
2019-08-21 06:00:00 8.4 9 Sudeste 11 Sudeste 0 853.8 -0.5 89
2019-08-21 05:00:00 9.1 6 Sudeste 10 Sudeste 0 853.8 -0.7 81
2019-08-21 04:00:00 9.2 7 Sudeste 10 Sudeste 0 854 -0.6 84
2019-08-21 03:00:00 9.9 6 Sudeste 11 Sudeste 0 854.3 -0.5 82
2019-08-21 02:00:00 9.5 6 Sudeste 7 Sudeste 0 854.5 -0.4 84
2019-08-21 01:00:00 9.4 4 Sudeste 12 Sur 0 854.6 0.1 81
2019-08-21 00:00:00 10.4 8 Sur 13 Sur 0 854.8 0.4 81
2019-08-20 23:00:00 10 6 Noroeste 14 Norte 0 854.9 0.8 95
2019-08-20 22:00:00 10.9 11 Noroeste 20 Noroeste 0 854.5 0.3 95
2019-08-20 21:00:00 11.4 15 Noroeste 23 Noroeste 0 854.4 0.4 93
2019-08-20 20:00:00 12.8 15 Noroeste 23 Noroeste 0 854.1 -0.2 88
2019-08-20 19:00:00 14.9 17 Noroeste 29 Noroeste 0 854.2 -0.4 79
2019-08-20 18:00:00 15.7 18 Noroeste 27 Noroeste 0 854 -0.6 75
2019-08-20 17:00:00 15.9 18 Noroeste 27 Noroeste 0 854.3 -0.4 75
2019-08-20 16:00:00 15.3 16 Noroeste 25 Noroeste 0 854.6 -0.2 78
2019-08-20 15:00:00 15.4 15 Noroeste 24 Noroeste 0 854.6 -0.2 75
2019-08-20 14:00:00 14.8 16 Noroeste 25 Noroeste 0 854.7 0.1 74
2019-08-20 13:00:00 14.3 14 Noroeste 23 Norte 0 854.8 0.6 71
2019-08-20 12:00:00 13.7 6 Norte -- -- 0 854.8 1.2 65
2019-08-20 11:00:00 11.5 12 Norte 27 Norte 0 854.6 1.5 68
2019-08-20 10:00:00 10.2 8 Sudeste 22 Este 0 854.2 1.7 76
2019-08-20 09:00:00 9 6 Oeste 21 Noroeste 0 853.6 1.2 83
2019-08-20 08:00:00 7 6 Noroeste 10 Noroeste 0 853.1 0.8 95
2019-08-20 07:00:00 6.7 6 Norte 10 Noroeste 0 852.5 0 95
2019-08-20 06:00:00 6 4 Noroeste 9 Noroeste 0 852.4 -0.1 95
2019-08-20 05:00:00 6.3 6 Noroeste 12 Norte 0 852.3 -0.4 95
2019-08-20 04:00:00 7 10 Norte 15 Norte 0 852.5 -0.3 96
2019-08-20 03:00:00 7 8 Norte 14 Noroeste 0 852.5 -0.3 95
2019-08-20 02:00:00 7.6 4 Noroeste 11 Nordeste 0 852.7 0.1 88
2019-08-20 01:00:00 8.2 7 Oeste 17 Noroeste 0 852.8 0.6 92
2019-08-20 00:00:00 7.8 6 Noroeste 14 Oeste 0 852.8 0.8 96
2019-08-19 23:00:00 7.7 12 Noroeste 17 Noroeste 0 852.6 0.7 96
2019-08-19 22:00:00 7.9 12 Noroeste 18 Noroeste 0 852.2 0.4 95
2019-08-19 21:00:00 8.2 12 Noroeste 20 Noroeste 0 852 0.3 95
2019-08-19 20:00:00 8.6 14 Noroeste 23 Noroeste 0 851.9 0.5 95
2019-08-19 19:00:00 9 16 Noroeste 27 Noroeste 0 851.8 0.3 94
2019-08-19 18:00:00 9.9 19 Noroeste -- -- 0 851.7 0 91
2019-08-19 17:00:00 12.5 22 Noroeste 32 Noroeste 0 851.4 -0.4 80
2019-08-19 16:00:00 13.8 19 Noroeste 29 Noroeste 0 851.5 -0.3 77
2019-08-19 15:00:00 12.5 17 Noroeste -- -- 0 851.7 0.4 81
2019-08-19 14:00:00 12.9 17 Noroeste 25 Noroeste 0 851.8 0.9 81
2019-08-19 13:00:00 10.8 18 Noroeste 28 Noroeste 0 851.8 0.9 84
2019-08-19 12:00:00 10.7 15 Noroeste 22 Noroeste 0 851.3 0.6 84
2019-08-19 11:00:00 9.7 6 Norte 14 Norte 0 850.9 0.2 82
2019-08-19 10:00:00 7.8 4 Este 8 Noroeste 0 850.9 0.5 85
2019-08-19 09:00:00 5.9 0 Calma 9 Noroeste 0 850.7 0.4 90
2019-08-19 08:00:00 4.9 6 Noroeste 11 Noroeste 0 850.7 0.3 91
2019-08-19 07:00:00 4.9 6 Sudeste 10 Sudeste 0 850.4 -0.6 90
2019-08-19 06:00:00 5 2 Norte 12 Oeste 0 850.3 -0.7 90
2019-08-19 05:00:00 6.2 6 Noroeste 21 Noroeste 0 850.4 -1 93
2019-08-19 04:00:00 6.2 12 Noroeste 19 Norte 0 851 -0.5 94
2019-08-19 03:00:00 6.3 13 Noroeste 22 Noroeste 0 851 -0.6 96
2019-08-19 02:00:00 6.6 13 Noroeste 21 Noroeste 0 851.4 0.1 96
2019-08-19 01:00:00 7 13 Noroeste 17 Noroeste 0 851.5 0.9 95
2019-08-19 00:00:00 7.5 10 Noroeste 18 Norte 0 851.6 1.3 95
2019-08-18 23:00:00 8 11 Noroeste 19 Noroeste 0 851.3 1.2 95
2019-08-18 22:00:00 8.5 12 Noroeste 19 Norte 0 850.6 0.6 96
2019-08-18 21:00:00 9.4 15 Noroeste 26 Noroeste 0 850.3 0.6 96
2019-08-18 20:00:00 10.1 14 Noroeste 25 Noroeste 0 850.1 0.6 95
2019-08-18 19:00:00 11 15 Noroeste 22 Noroeste 0 850 0.6 94
2019-08-18 18:00:00 12.9 15 Noroeste 25 Noroeste 0 849.7 0.6 90
2019-08-18 17:00:00 13.3 15 Noroeste 22 Norte 0 849.5 0.4 94
2019-08-18 16:00:00 13.6 11 Noroeste 23 Noroeste 0 849.4 0.5 94
2019-08-18 15:00:00 13.9 15 Noroeste 22 Noroeste 0 849.1 0.3 95
2019-08-18 14:00:00 11.9 14 Noroeste 24 Noroeste 0.6 849.1 1.1 95
2019-08-18 13:00:00 11.9 15 Noroeste 28 Noroeste 2.8 848.9 1.3 95
2019-08-18 12:00:00 11.6 16 Noroeste 24 Noroeste 1.2 848.8 1.4 95
2019-08-18 11:00:00 13.7 9 Noroeste 17 Noroeste 0.6 848 0.8 94
2019-08-18 10:00:00 14.1 9 Noroeste -- -- 0 847.6 0.5 93
2019-08-18 09:00:00 13.8 -- -- -- -- 0 847.4 0.2 90
2019-08-18 08:00:00 13 5 Sudeste 41 Noroeste 0 847.2 -0.1 81
2019-08-18 07:00:00 12.5 10 Sur 41 Este 0 847.1 -0.5 75
2019-08-18 06:00:00 13 5 Sur 34 Sur 0 847.2 -0.7 68
2019-08-18 05:00:00 13.2 10 Sudeste 31 Sudeste 0 847.3 -1 65
2019-08-18 04:00:00 13.8 7 Nordeste 19 Sudeste 0 847.6 -1 56
2019-08-18 03:00:00 14.3 7 Sudoeste 40 Sudeste 0 847.9 -1.1 54
2019-08-18 02:00:00 14.5 5 Sudeste 31 Sudeste 0 848.3 -1 54
2019-08-18 01:00:00 15.4 16 Sudeste 35 Sudeste 0 848.6 -0.6 58
2019-08-18 00:00:00 14.7 5 Este 18 Este 0 849 -0.2 63
2019-08-17 23:00:00 14.7 5 Oeste 17 Noroeste 0 849.3 -0.1 66
2019-08-17 22:00:00 16.2 8 Noroeste 38 Noroeste 0 849.2 -0.5 63
2019-08-17 21:00:00 18.3 15 Norte 29 Noroeste 0 849.2 -0.8 51
2019-08-17 20:00:00 21.1 15 Noroeste 31 Noroeste 0 849.4 -0.7 45
2019-08-17 19:00:00 22.4 13 Noroeste 32 Norte 0 849.7 -0.8 43
2019-08-17 18:00:00 23 17 Noroeste 40 Noroeste 0 850 -0.8 37
2019-08-17 17:00:00 22.7 15 Norte 29 Norte 0 850.1 -0.8 49
2019-08-17 16:00:00 22.2 9 Norte 28 Sudeste 0 850.5 -0.6 49
2019-08-17 15:00:00 23.4 8 Norte 32 Sudeste 0 850.8 -0.4 48
2019-08-17 14:00:00 22.8 11 Sudeste 27 Sur 0 850.9 -0.4 46
2019-08-17 13:00:00 21.7 5 Nordeste 26 Sudeste 0 851.1 -0.3 49
2019-08-17 12:00:00 20.9 10 Este 23 Sudeste 0 851.2 -0.2 52
2019-08-17 11:00:00 20.1 8 Sudeste 29 Oeste 0 851.3 0 51
2019-08-17 10:00:00 18.3 7 Este 29 Noroeste 0 851.4 0.3 51
2019-08-17 09:00:00 16.2 13 Noroeste 36 Oeste 0 851.4 0.3 55
2019-08-17 08:00:00 12.5 3 Noroeste 11 Sudoeste 0 851.3 0 70
2019-08-17 07:00:00 13.1 2 Sudeste 34 Oeste 0 851.1 -0.7 66
2019-08-17 06:00:00 12.8 9 Noroeste 21 Oeste 0 851.1 -0.9 70
2019-08-17 05:00:00 11.7 4 Sur 11 Sudeste 0 851.3 -1.2 76
2019-08-17 04:00:00 11.2 8 Sudeste 13 Sudeste 0 851.8 -0.7 74
2019-08-17 03:00:00 12 6 Sudeste 11 Sur 0 852 -0.5 68
2019-08-17 02:00:00 12 3 Sudeste 12 Noroeste 0 852.5 -0.2 57
2019-08-17 01:00:00 12.9 10 Noroeste 15 Noroeste 0 852.5 -0.1 51
2019-08-17 00:00:00 13.7 13 Noroeste 21 Noroeste 0 852.5 0.2 59
2019-08-16 23:00:00 14.2 11 Noroeste 18 Noroeste 0 852.7 0.6 65
2019-08-16 22:00:00 14.7 10 Noroeste 14 Noroeste 0 852.6 0.2 67
2019-08-16 21:00:00 17.6 8 Noroeste 19 Noroeste 0 852.3 -0.1 57
2019-08-16 20:00:00 20.3 13 Noroeste 26 Noroeste 0 852.1 -0.5 43
2019-08-16 19:00:00 21 15 Noroeste 31 Noroeste 0 852.4 -0.2 37
2019-08-16 18:00:00 22.7 17 Noroeste 31 Oeste 0 852.4 -0.5 37
2019-08-16 17:00:00 23.3 13 Noroeste 27 Noroeste 0 852.6 -0.2 35
2019-08-16 16:00:00 23.2 14 Norte 26 Norte 0 852.6 -0.5 36
2019-08-16 15:00:00 22.6 13 Noroeste 26 Noroeste 0 852.9 -0.2 33
2019-08-16 14:00:00 22.8 8 Norte 26 Sudeste 0 852.8 -0.1 38
2019-08-16 13:00:00 21.9 10 Sudeste 20 Sudeste 0 853.1 0 43
2019-08-16 12:00:00 20.6 7 Este 19 Sudeste 0 853.1 0.1 49
2019-08-16 11:00:00 18.8 10 Sudeste 17 Sudeste 0 852.9 -0.2 60
2019-08-16 10:00:00 16.4 7 Sudeste 10 Sudeste 0 853.1 -0.1 67
2019-08-16 09:00:00 13.6 5 Sudeste 7 Sudeste 0 853 -0.2 76
2019-08-16 08:00:00 10.7 2 Nordeste 10 Sur 0 853.1 -0.3 76
2019-08-16 07:00:00 11.2 5 Sur 9 Sudeste 0 853.2 -0.5 80
2019-08-16 06:00:00 11.3 6 Sudeste 7 Sudeste 0 853.2 -0.8 79
2019-08-16 05:00:00 11.2 0 Calma 7 Sur 0 853.4 -0.9 76
2019-08-16 04:00:00 11.5 3 Sudoeste 10 Sur 0 853.7 -0.8 80
2019-08-16 03:00:00 12.2 5 Sur 9 Sudeste 0 854 -0.7 76
2019-08-16 02:00:00 11.5 0 Calma 8 Sudeste 0 854.3 -0.6 76
2019-08-16 01:00:00 12.3 6 Sudeste 13 Sudeste 0 854.5 -0.5 74
2019-08-16 00:00:00 11.2 6 Sur 11 Sur 0 854.7 0.2 74
2019-08-15 23:00:00 10.5 2 Sudeste 17 Noroeste 0 854.9 0.4 65
2019-08-15 22:00:00 12.2 13 Noroeste 21 Noroeste 0 855 0.2 92
2019-08-15 21:00:00 14 14 Noroeste 24 Noroeste 0 854.5 -0.3 87
2019-08-15 20:00:00 16.3 17 Noroeste 30 Noroeste 0 854.5 -0.4 78
2019-08-15 19:00:00 17 22 Noroeste 34 Noroeste 0 854.8 -0.4 75
2019-08-15 18:00:00 18.3 23 Noroeste 37 Noroeste 0 854.8 -0.3 69
2019-08-15 17:00:00 19.3 16 Noroeste 27 Noroeste 0 854.9 -0.2 66
2019-08-15 16:00:00 19.3 13 Noroeste 26 Noroeste 0 855.2 -0.1 64
2019-08-15 15:00:00 19.4 14 Noroeste 25 Noroeste 0 855.1 0 62
2019-08-15 14:00:00 18.9 15 Noroeste 22 Noroeste 0 855.1 0 63
2019-08-15 13:00:00 18.1 13 Noroeste 21 Noroeste 0 855.3 0.4 64
2019-08-15 12:00:00 18 13 Noroeste 23 Noroeste 0 855.1 0.1 66
2019-08-15 11:00:00 17.1 15 Noroeste 25 Noroeste 0 855.1 0.2 71
2019-08-15 10:00:00 16.4 12 Noroeste 19 Noroeste 0 854.9 0.3 72
2019-08-15 09:00:00 13 10 Noroeste 13 Noroeste 0 855 0.4 53
2019-08-15 08:00:00 9.8 10 Noroeste 13 Noroeste 0 854.9 0.2 44
2019-08-15 07:00:00 9.5 5 Noroeste 11 Noroeste 0 854.6 -0.2 40
2019-08-15 06:00:00 9.5 7 Noroeste 14 Noroeste 0 854.6 -0.4 42
2019-08-15 05:00:00 9.2 9 Noroeste 13 Noroeste 0 854.7 -0.5 48
2019-08-15 04:00:00 9.1 7 Noroeste 13 Noroeste 0 854.8 -0.5 60
2019-08-15 03:00:00 8.9 9 Noroeste 15 Noroeste 0 855 -0.3 58
2019-08-15 02:00:00 8.5 3 Noroeste 8 Noroeste 0 855.2 -0.3 82
2019-08-15 01:00:00 11.4 4 Noroeste 14 Norte 0 855.3 0.2 89
2019-08-15 00:00:00 12.4 9 Noroeste 14 Norte 0 855.3 0.5 90
2019-08-14 23:00:00 13.7 10 Noroeste 19 Noroeste 0 855.5 0.8 90
2019-08-14 22:00:00 14.6 8 Noroeste 18 Norte 0 855.1 0.5 88
2019-08-14 21:00:00 16.1 10 Noroeste 26 Noroeste 0 854.8 -0.1 81
2019-08-14 20:00:00 16.9 13 Noroeste 24 Noroeste 0 854.7 -0.2 77
2019-08-14 19:00:00 17.7 14 Noroeste 30 Noroeste 0 854.6 -0.4 77
2019-08-14 18:00:00 17.7 15 Noroeste 31 Noroeste 0 854.9 -0.1 76
2019-08-14 17:00:00 18.4 16 Noroeste 29 Noroeste 0 854.9 0.1 72
2019-08-14 16:00:00 18.6 17 Noroeste 27 Noroeste 0 855 0.1 70
2019-08-14 15:00:00 19.3 13 Noroeste 26 Noroeste 0 855 0.4 69
2019-08-14 14:00:00 18.3 15 Norte 21 Norte 0 854.8 0.5 69
2019-08-14 13:00:00 17.9 13 Noroeste 22 Noroeste 0 854.9 0.9 68
2019-08-14 12:00:00 17.7 12 Noroeste 17 Noroeste 0 854.6 0.6 64
2019-08-14 11:00:00 17.2 13 Noroeste 18 Noroeste 0 854.3 0.6 66
2019-08-14 10:00:00 15.3 6 Sudeste 12 Sudeste 0 854 0.5 62
2019-08-14 09:00:00 12.5 5 Noroeste 8 Noroeste 0 854 0.4 70
2019-08-14 08:00:00 9.5 0 Calma 8 Sudeste 0 853.7 0 78
2019-08-14 07:00:00 8.8 2 Sudoeste 8 Sudeste 0 853.5 -0.3 73
2019-08-14 06:00:00 8.8 4 Noroeste 10 Sur 0 853.6 -0.3 72
2019-08-14 05:00:00 8.7 3 Sur 6 Sur 0 853.7 -0.5 68
2019-08-14 04:00:00 9.6 5 Sur 9 Noroeste 0 853.8 -0.4 66
2019-08-14 03:00:00 8.7 3 Este 8 Sudeste 0 853.9 -0.6 74
2019-08-14 02:00:00 9.3 4 Sur 11 Sudeste 0 854.2 -0.2 72
2019-08-14 01:00:00 9.4 2 Sudoeste 12 Noroeste 0 854.2 0 72
2019-08-14 00:00:00 10 9 Noroeste 12 Norte 0 854.5 0.6 89
2019-08-13 23:00:00 10.7 8 Noroeste 14 Noroeste 0 854.4 0.7 92
2019-08-13 22:00:00 11.5 11 Noroeste 21 Noroeste 0 854.2 0.7 94
2019-08-13 21:00:00 12 13 Noroeste 26 Noroeste 0 853.9 0.4 87
2019-08-13 20:00:00 14.5 17 Noroeste 24 Noroeste 0 853.7 0 74
2019-08-13 19:00:00 16.4 15 Noroeste 25 Noroeste 0 853.5 -0.3 64
2019-08-13 18:00:00 16.9 15 Noroeste 26 Noroeste 0 853.5 -0.5 63
2019-08-13 17:00:00 17.2 15 Noroeste 30 Norte 0 853.7 -0.4 63
2019-08-13 16:00:00 16.7 17 Noroeste 27 Noroeste 0 853.8 -0.3 64
2019-08-13 15:00:00 16.1 16 Noroeste 27 Noroeste 0 854 -0.1 64
2019-08-13 14:00:00 15.2 14 Noroeste 22 Noroeste 0 854.1 0.2 69
2019-08-13 13:00:00 14.6 14 Noroeste 22 Noroeste 0 854.1 0.3 69
2019-08-13 12:00:00 13.8 11 Noroeste 17 Noroeste 0 854.1 0.3 66
2019-08-13 11:00:00 12.7 7 Sudeste 12 Sudeste 0 853.9 0.2 70
2019-08-13 10:00:00 9.6 9 Sudeste 12 Sudeste 0 853.8 0.3 93
2019-08-13 09:00:00 6.1 5 Sudeste 12 Sudeste 0 853.8 0.6 96
2019-08-13 08:00:00 4.8 9 Sudeste 12 Sudeste 0 853.7 0.2 96
2019-08-13 07:00:00 5.1 10 Sudeste 14 Sudeste 0 853.5 -0.1 96
2019-08-13 06:00:00 5.5 8 Sudeste 13 Sudeste 0 853.2 -0.9 95
2019-08-13 05:00:00 6 8 Sudeste 14 Sudeste 0 853.5 -1 95
2019-08-13 04:00:00 6.1 10 Sudeste 13 Sudeste 0 853.6 -1.3 95
2019-08-13 03:00:00 5.2 5 Sudeste 8 Sudeste 0 854.1 -1.1 94
2019-08-13 02:00:00 5.4 3 Sudeste 6 Sudeste 0 854.5 -0.7 95
2019-08-13 01:00:00 6.9 5 Noroeste 11 Noroeste 0 854.9 0.1 95
2019-08-13 00:00:00 7.1 7 Noroeste 10 Noroeste 0 855.2 0.8 95
2019-08-12 23:00:00 7.2 8 Oeste 22 Noroeste 0 855.2 1.3 95
2019-08-12 22:00:00 7.5 12 Noroeste 25 Noroeste 0 854.8 0.9 95
2019-08-12 21:00:00 8.3 16 Noroeste -- -- 0 854.4 0.4 92
2019-08-12 20:00:00 9.1 15 Noroeste 22 Noroeste 0 853.9 -0.5 86
2019-08-12 19:00:00 11.1 13 Noroeste 24 Noroeste 0 853.9 -0.7 75
2019-08-12 18:00:00 10.3 14 Noroeste 30 Noroeste 0 854 -0.8 71
2019-08-12 17:00:00 11.2 18 Noroeste 28 Noroeste 0 854.4 -0.6 65
2019-08-12 16:00:00 11.1 18 Noroeste 30 Oeste 0 854.6 -0.3 65
2019-08-12 15:00:00 12.3 14 Noroeste 29 Noroeste 0 854.8 0.2 67
2019-08-12 14:00:00 10.9 15 Noroeste 28 Noroeste 0 855 0.9 75
2019-08-12 13:00:00 9.6 13 Noroeste 30 Noroeste 0 854.9 1.2 72
2019-08-12 12:00:00 9.1 15 Noroeste 30 Noroeste 0 854.6 1.4 73
2019-08-12 11:00:00 8.1 18 Noroeste 31 Noroeste 0 854.1 1.3 80
2019-08-12 10:00:00 5.8 15 Noroeste 35 Oeste 0 853.7 1.1 90
2019-08-12 09:00:00 5.2 17 Noroeste 27 Noroeste 0 853.2 0.9 90
2019-08-12 08:00:00 4.7 12 Noroeste 28 Noroeste 0 852.8 0.6 92
2019-08-12 07:00:00 4.8 18 Noroeste 30 Noroeste 0 852.6 0.3 91
2019-08-12 06:00:00 5.1 16 Noroeste 27 Noroeste 0 852.3 -0.4 93
2019-08-12 05:00:00 5.3 14 Noroeste 30 Noroeste 0 852.2 -0.8 94
2019-08-12 04:00:00 5.6 22 Noroeste 32 Noroeste 0 852.3 -0.7 90
2019-08-12 03:00:00 5.7 12 Noroeste 21 Norte 0 852.7 -0.4 91
2019-08-12 02:00:00 5.7 14 Noroeste 27 Noroeste 0 853 0.1 91
2019-08-12 01:00:00 5.8 16 Noroeste 24 Norte 0 853 0.4 91
2019-08-12 00:00:00 6 13 Noroeste 19 Noroeste 0 853.1 0.9 89
2019-08-11 23:00:00 5.5 11 Noroeste 17 Noroeste 0 852.9 1 90
2019-08-11 22:00:00 6.1 10 Noroeste 19 Noroeste 0 852.6 0.7 87
2019-08-11 21:00:00 6.8 8 Noroeste 26 Noroeste 0 852.2 0.3 85
2019-08-11 20:00:00 7.8 13 Noroeste 24 Noroeste 0 851.9 0.1 82
2019-08-11 19:00:00 7.9 16 Noroeste 23 Noroeste 0 851.9 0.7 87
2019-08-11 18:00:00 7.6 19 Noroeste 37 Noroeste 0.6 851.9 0.7 92
2019-08-11 17:00:00 8.5 22 Noroeste 46 Norte 1 851.8 0.5 89
2019-08-11 16:00:00 12.7 15 Noroeste 24 Noroeste 0 851.2 -0.2 54
2019-08-11 15:00:00 12.1 14 Noroeste 28 Noroeste 0 851.2 0 61
2019-08-11 14:00:00 12.6 19 Noroeste 29 Noroeste 0 851.3 0.6 63
2019-08-11 13:00:00 12.5 15 Noroeste 32 Noroeste 0 851.4 1 71
2019-08-11 12:00:00 11.1 14 Noroeste -- -- 0 851.2 1 78
2019-08-11 11:00:00 10 -- -- -- -- 0 850.7 0.7 87
2019-08-11 10:00:00 8 14 Noroeste 22 Noroeste 0 850.4 0.6 96
2019-08-11 09:00:00 7.4 13 Noroeste 21 Oeste 0 850.2 0.1 96
2019-08-11 08:00:00 7.3 11 Noroeste 18 Noroeste 0 850 0 96
2019-08-11 07:00:00 7.6 10 Noroeste 14 Noroeste 0 849.8 -0.7 96
2019-08-11 06:00:00 7.7 7 Noroeste 14 Noroeste 0.2 850.1 -1.1 96
2019-08-11 05:00:00 7.7 9 Noroeste 17 Norte 0 850 -1.8 96
2019-08-11 04:00:00 7.9 10 Noroeste 15 Noroeste 0 850.5 -1.3 96
2019-08-11 03:00:00 8.2 10 Noroeste 12 Noroeste 0 851.2 -0.8 96
2019-08-11 02:00:00 8.6 9 Noroeste 19 Noroeste 0 851.8 -0.6 96
2019-08-11 01:00:00 8.8 11 Noroeste 16 Noroeste 0 851.8 -0.4 96
2019-08-11 00:00:00 9.1 10 Noroeste 19 Noroeste 0 852 -0.3 95
2019-08-10 23:00:00 9.5 13 Noroeste 23 Noroeste 0 852.4 0.1 95
2019-08-10 22:00:00 10.1 13 Noroeste 25 Noroeste 0 852.2 -0.1 93
2019-08-10 21:00:00 10.9 17 Noroeste 26 Noroeste 0 852.3 0 89
2019-08-10 20:00:00 11.9 17 Noroeste 31 Noroeste 0 852.3 -0.1 86
2019-08-10 19:00:00 12.6 17 Noroeste 35 Noroeste 0 852.3 -0.1 79
2019-08-10 18:00:00 14.7 20 Noroeste 32 Noroeste 0 852.3 -0.4 60
2019-08-10 17:00:00 16.2 12 Noroeste 22 Noroeste 0 852.4 -0.3 60
2019-08-10 16:00:00 17 12 Noroeste 20 Noroeste 0 852.4 -0.4 60
2019-08-10 15:00:00 14.6 9 Noroeste 27 Norte 0 852.7 -0.3 59
2019-08-10 14:00:00 14.5 16 Noroeste 24 Noroeste 0 852.7 0 61
2019-08-10 13:00:00 14.7 11 Noroeste 22 Norte 0 852.8 0.3 60
2019-08-10 12:00:00 13 8 Noroeste 22 Norte 0 853 0.7 61
2019-08-10 11:00:00 12.1 10 Norte -- -- 0 852.7 0.7 68
2019-08-10 10:00:00 9.7 7 Norte 18 Noroeste 0 852.5 1 75
2019-08-10 09:00:00 7.6 3 Sudeste -- -- 0 852.3 0.9 84
2019-08-10 08:00:00 6.2 -- -- -- -- 0 852 0.9 84
2019-08-10 07:00:00 6.6 3 Sudoeste 19 Oeste 0 851.5 0.4 79
2019-08-10 06:00:00 7 4 Norte 10 Este 0 851.4 0.6 80
2019-08-10 05:00:00 8.3 7 Sudeste 25 Sudeste 0 851.1 0 77
2019-08-10 04:00:00 8.7 11 Sudeste 30 Sudeste 0 851.1 0 76
2019-08-10 03:00:00 8.9 18 Sudeste 39 Sudeste 0 850.8 -0.3 78
2019-08-10 02:00:00 9.4 16 Sudeste 41 Este 0 851.1 0.1 77
2019-08-10 01:00:00 9.3 15 Este 29 Este 0 851.1 0.7 78
2019-08-10 00:00:00 9.3 11 Sudeste 24 Sudeste 0 851.1 1 79
2019-08-09 23:00:00 10.4 13 Sudeste 26 Sudeste 0 851 1.3 76
2019-08-09 22:00:00 10.9 12 Este 28 Sudeste 0 850.4 1.2 74
2019-08-09 21:00:00 11.5 6 Este 33 Sudeste 0 850.1 1.5 71
2019-08-09 20:00:00 12.7 15 Sudeste -- -- 0 849.7 1.6 66
2019-08-09 19:00:00 13.4 8 Nordeste 34 Este 0 849.2 1.3 66
2019-08-09 18:00:00 14 12 Nordeste 48 Sudeste 0 848.6 1.2 67
2019-08-09 17:00:00 14.2 18 Este 61 Sudeste 0 848.1 1.4 67
2019-08-09 16:00:00 15 24 Sudeste 69 Sudeste 0 847.9 1.2 65
2019-08-09 15:00:00 14.2 34 Sudeste 85 Sudeste 0 847.4 1.1 64
2019-08-09 14:00:00 14.8 42 Sudeste 82 Sudeste 0 846.7 1 61
2019-08-09 13:00:00 14.2 40 Sudeste 76 Sudeste 0 846.7 1.2 64
2019-08-09 12:00:00 14.2 35 Sudeste 72 Sudeste 0 846.3 1.3 63
2019-08-09 11:00:00 13.2 31 Sudeste 71 Sudeste 0 845.7 0.9 66
2019-08-09 10:00:00 12.3 28 Sudeste 69 Sudeste 0 845.5 1.2 67
2019-08-09 09:00:00 11.4 33 Sudeste 63 Sudeste 0 845 1.1 69
2019-08-09 08:00:00 11.8 17 Sudeste 62 Sudeste 0 844.8 0.8 71
2019-08-09 07:00:00 13.4 30 Sudeste 86 Sudeste 0.2 844.3 0 72
2019-08-09 06:00:00 14.9 32 Sudeste 65 Sudeste 0.4 843.9 -0.3 88
2019-08-09 05:00:00 15.1 31 Sudeste 74 Sudeste 1 844 -0.7 92
2019-08-09 04:00:00 15.2 29 Sudeste 75 Sudeste 2 844.3 -0.5 91
2019-08-09 03:00:00 15.3 36 Sudeste 78 Sur 0.4 844.2 -1 89
2019-08-09 02:00:00 15.3 37 Sudeste 76 Sudeste 0.4 844.7 -1.1 88
2019-08-09 01:00:00 15.1 34 Sudeste 80 Sudeste 0.2 844.8 -0.9 90
2019-08-09 00:00:00 15.6 39 Sudeste 78 Sur 0.2 845.2 -0.6 86
2019-08-08 23:00:00 15.6 40 Sudeste 86 Sudeste 0 845.8 0 86
2019-08-08 22:00:00 15.4 24 Sudeste 85 Sur 0 845.7 -0.1 85
2019-08-08 21:00:00 16.1 36 Sudeste 78 Sur 0 845.8 -0.2 78
2019-08-08 20:00:00 17.2 25 Sudeste 90 Sudeste 0.2 845.8 -0.3 77
2019-08-08 19:00:00 17.2 22 Sudeste 58 Sudeste 0 845.8 -0.8 84
2019-08-08 18:00:00 17.4 30 Sudeste 72 Sur 0.6 846 -0.9 85
2019-08-08 17:00:00 17.3 18 Sudeste 52 Sudeste 0.2 846.1 -1 88
2019-08-08 16:00:00 16.8 18 Sudeste 43 Sudeste 1.4 846.6 -0.4 90
2019-08-08 15:00:00 16.7 17 Sudeste 41 Sudeste 0.8 846.9 -0.2 91
2019-08-08 14:00:00 17.7 22 Sudeste 59 Sudeste 0 847.1 0 81
2019-08-08 13:00:00 15.7 28 Sudeste 58 Sudeste 0 847 0 89
2019-08-08 12:00:00 15.2 30 Sudeste -- -- 0.2 847.1 0.3 91
2019-08-08 11:00:00 15 15 Sudeste 48 Sudeste 0 847.1 0.4 91
2019-08-08 10:00:00 15.9 30 Sudeste 59 Sudeste 0 847 0.7 83
2019-08-08 09:00:00 14.3 27 Sudeste 58 Sudeste 0 846.8 0.1 90
2019-08-08 08:00:00 14 22 Sudeste 54 Sudeste 0 846.7 -0.5 91
2019-08-08 07:00:00 13.8 30 Sudeste 50 Sudeste 0 846.3 -1 92
2019-08-08 06:00:00 13.8 23 Sudeste 44 Sur 0.2 846.7 -0.8 90
2019-08-08 05:00:00 13.5 18 Sudeste 33 Sudeste 0 847.2 -0.3 93
2019-08-08 04:00:00 13.3 13 Sudeste 30 Sur 0 847.3 -0.5 94
2019-08-08 03:00:00 13.6 19 Este 48 Sudeste 0.2 847.5 -0.2 91
2019-08-08 02:00:00 13.6 23 Sudeste 45 Sudeste 0 847.5 -0.3 90
2019-08-08 01:00:00 13.4 12 Sudeste 35 Sur 1.4 847.8 0.1 92
2019-08-08 00:00:00 13.3 15 Sudeste 41 Sur 0.4 847.7 0.2 91
2019-08-07 23:00:00 13.2 18 Sur 36 Sur 0 847.8 0.3 93
2019-08-07 22:00:00 13.2 13 Sudeste 29 Sudeste 0.2 847.7 0 93
2019-08-07 21:00:00 13.3 10 Sudeste 26 Sudeste 0 847.5 -0.3 93
2019-08-07 20:00:00 13.6 11 Sudeste 26 Sudeste 0.2 847.5 -0.5 93
2019-08-07 19:00:00 13.5 13 Sudeste 28 Sudeste 0 847.7 -0.4 92
2019-08-07 18:00:00 13.6 14 Sudeste 21 Sudeste 1 847.8 -0.2 91
2019-08-07 17:00:00 14.1 16 Sudeste 22 Sudeste 0.6 848 0 86
2019-08-07 16:00:00 15.5 9 Sudeste 30 Sudeste 0.2 848.1 0.1 79
2019-08-07 15:00:00 15.7 18 Sudeste 30 Sudeste 0 848 0.1 73
2019-08-07 14:00:00 16.8 15 Sudeste 38 Sudeste 0 848 0.3 63
2019-08-07 13:00:00 17.1 13 Sudeste 24 Sudeste 0 848 0.6 63
2019-08-07 12:00:00 17.5 12 Este 22 Sudeste 0 847.9 0.7 63
2019-08-07 11:00:00 15.4 12 Sudeste 19 Sudeste 0 847.7 0.6 66
2019-08-07 10:00:00 14.9 8 Sudeste 13 Sur 0 847.4 0.3 72
2019-08-07 09:00:00 12 5 Sudeste -- -- 0 847.2 0.2 81
2019-08-07 08:00:00 10.2 0 Calma 8 Noroeste 0 847.1 -0.1 85
2019-08-07 07:00:00 9.5 6 Noroeste 12 Noroeste 0 847.1 -0.1 84
2019-08-07 06:00:00 9.3 4 Noroeste 9 Noroeste 0 847 -0.5 84
2019-08-07 05:00:00 10.3 4 Noroeste 15 Noroeste 0 847.2 -0.6 80
2019-08-07 04:00:00 10.7 4 Noroeste 18 Noroeste 0 847.2 -0.8 79
2019-08-07 03:00:00 12 11 Noroeste 21 Oeste 0 847.5 -0.9 77
2019-08-07 02:00:00 11.5 8 Noroeste 15 Noroeste 0 847.8 -0.9 76
2019-08-07 01:00:00 11.8 9 Noroeste 15 Noroeste 0 848 -0.4 74
2019-08-07 00:00:00 12.3 9 Noroeste 24 Noroeste 0 848.4 0 72
2019-08-06 23:00:00 12.5 8 Noroeste 21 Noroeste 0 848.7 -0.1 73
2019-08-06 22:00:00 12.9 9 Noroeste 22 Oeste 0 848.4 -0.4 72
2019-08-06 21:00:00 12.3 9 Noroeste 21 Noroeste 0 848.4 -0.7 91
2019-08-06 20:00:00 13 9 Noroeste 23 Norte 0.2 848.8 -0.1 92
2019-08-06 19:00:00 13.4 22 Norte 32 Norte 1 848.8 -0.1 90
2019-08-06 18:00:00 13.4 23 Noroeste 36 Noroeste 0.8 849.1 0.2 91
2019-08-06 17:00:00 16.5 20 Noroeste 28 Noroeste 0 848.9 -0.1 81
2019-08-06 16:00:00 17.2 18 Noroeste 28 Oeste 0 848.9 -0.2 75
2019-08-06 15:00:00 19.5 15 Noroeste 25 Norte 0 848.9 -0.2 70
2019-08-06 14:00:00 20.8 11 Norte 19 Oeste 0 849 -0.2 64
2019-08-06 13:00:00 20 7 Noroeste 23 Sudeste 0 849.1 0.1 58
2019-08-06 12:00:00 19 7 Sur 19 Sudeste 0 849.1 0.2 58
2019-08-06 11:00:00 17.4 7 Este 15 Sudeste 0 849.2 0.5 69
2019-08-06 10:00:00 15.5 10 Sudeste 13 Sudeste 0 849 0.3 78
2019-08-06 09:00:00 12.7 4 Sudeste 13 Sudeste 0 848.9 0 88
2019-08-06 08:00:00 11.9 6 Sudeste 11 Sur 0 848.7 -0.7 87
2019-08-06 07:00:00 11.6 7 Sudeste 10 Sudeste 0 848.7 -1 87
2019-08-06 06:00:00 12.2 8 Sudeste 11 Sudeste 0 848.9 -0.9 84
2019-08-06 05:00:00 12.2 5 Sudeste 13 Sudoeste 0 849.4 -0.6 83
2019-08-06 04:00:00 11.7 3 Sudeste 9 Sur 0 849.7 -0.9 84
2019-08-06 03:00:00 11.5 3 Nordeste 7 Sudeste 0 849.8 -0.7 86
2019-08-06 02:00:00 12.1 6 Sur 11 Noroeste 0 850 -0.6 85
2019-08-06 01:00:00 12.2 6 Noroeste 13 Noroeste 0 850.6 0.3 89
2019-08-06 00:00:00 13 8 Noroeste 18 Noroeste 0 850.5 0.4 89
2019-08-05 23:00:00 13.3 13 Noroeste 19 Noroeste 0 850.6 0.6 94
2019-08-05 22:00:00 13.9 14 Noroeste 27 Noroeste 0 850.3 0.3 93
2019-08-05 21:00:00 14.9 18 Noroeste 27 Noroeste 0 850.1 0 90
2019-08-05 20:00:00 16.6 17 Noroeste 31 Noroeste 0 850 -0.5 82
2019-08-05 19:00:00 19.5 19 Noroeste 28 Noroeste 0 850 -0.4 70
2019-08-05 18:00:00 20.6 16 Noroeste 30 Noroeste 0 850.1 -0.5 62
2019-08-05 17:00:00 20.7 18 Noroeste 31 Noroeste 0 850.5 -0.1 57
2019-08-05 16:00:00 21.4 17 Noroeste 26 Noroeste 0 850.4 -0.5 57
2019-08-05 15:00:00 20.7 14 Noroeste 28 Noroeste 0 850.6 -0.3 58
2019-08-05 14:00:00 19.7 17 Noroeste 26 Noroeste 0 850.6 -0.1 63
2019-08-05 13:00:00 18.5 14 Noroeste 21 Noroeste 0 850.9 0 63
2019-08-05 12:00:00 17.9 14 Noroeste 22 Noroeste 0 850.9 0.1 59
2019-08-05 11:00:00 18.7 10 Sudeste 14 Sudeste 0 850.7 -0.1 51
2019-08-05 10:00:00 16 7 Sudeste 10 Sudeste 0 850.9 0.3 56
2019-08-05 09:00:00 12.8 3 Este 12 Noroeste 0 850.8 0.1 71
2019-08-05 08:00:00 9.5 2 Este 13 Noroeste 0 850.8 -0.2 63
2019-08-05 07:00:00 8.9 3 Noroeste 7 Sudoeste 0 850.6 -0.6 65
2019-08-05 06:00:00 9.4 2 Noroeste 10 Noroeste 0 850.7 -0.5 69
2019-08-05 05:00:00 10.7 7 Noroeste 12 Noroeste 0 851 -0.3 70
2019-08-05 04:00:00 9.4 3 Noroeste 8 Oeste 0 851.2 -0.4 60
2019-08-05 03:00:00 10.2 2 Sudeste 14 Noroeste 0 851.2 -0.5 64
2019-08-05 02:00:00 10.6 9 Noroeste 13 Noroeste 0 851.3 -0.4 66
2019-08-05 01:00:00 9.7 3 Noroeste 8 Noroeste 0 851.6 0.2 79
2019-08-05 00:00:00 10.6 4 Noroeste 9 Noroeste 0 851.7 0.5 92
2019-08-04 23:00:00 12.7 8 Noroeste 21 Noroeste 0 851.7 0.7 95
2019-08-04 22:00:00 13.7 13 Noroeste 22 Noroeste 0 851.4 0.9 95
2019-08-04 21:00:00 14.2 16 Noroeste 27 Noroeste 0 851.2 0.8 94
2019-08-04 20:00:00 15.8 19 Noroeste 32 Noroeste 0 851 0.5 88
2019-08-04 19:00:00 16.7 22 Noroeste 34 Noroeste 0 850.5 0 84
2019-08-04 18:00:00 18.6 20 Noroeste 31 Noroeste 0 850.4 -0.3 73
2019-08-04 17:00:00 19.7 21 Noroeste -- -- 0 850.5 -0.1 76
2019-08-04 16:00:00 19.4 14 Noroeste 27 Noroeste 0 850.5 -0.2 78
2019-08-04 15:00:00 18.7 18 Noroeste 29 Noroeste 0 850.7 0.5 81
2019-08-04 14:00:00 17.7 18 Noroeste 26 Norte 0 850.6 0.4 83
2019-08-04 13:00:00 17.1 16 Noroeste 26 Noroeste 0 850.7 0.5 83
2019-08-04 12:00:00 20.5 13 Sudeste 22 Sudeste 0 850.2 0.1 58
2019-08-04 11:00:00 19.3 12 Sudeste 19 Este 0 850.2 0.2 65
2019-08-04 10:00:00 16.8 6 Sudeste 11 Sudeste 0 850.2 0.3 79
2019-08-04 09:00:00 13 5 Sudeste 12 Norte 0 850.1 0.1 96
2019-08-04 08:00:00 9.9 9 Norte 14 Norte 0 850 -0.1 94
2019-08-04 07:00:00 11.8 6 Sudeste 9 Sur 0 849.9 -0.4 88
2019-08-04 06:00:00 11.4 2 Nordeste 9 Sur 0 850 -0.4 88
2019-08-04 05:00:00 11.8 4 Sur 7 Sur 0 850.1 -0.5 91
2019-08-04 04:00:00 10.9 2 Sudeste 9 Norte 0 850.3 -0.6 87
2019-08-04 03:00:00 11.2 0 Calma 5 Noroeste 0 850.4 -0.6 84
2019-08-04 02:00:00 11.2 0 Calma 5 Sudoeste 0 850.6 -0.4 85
2019-08-04 01:00:00 12.4 3 Oeste 15 Noroeste 0 850.9 0.3 88
2019-08-04 00:00:00 14 14 Noroeste 23 Noroeste 0 851 0.5 95
2019-08-03 23:00:00 14.2 12 Noroeste 17 Noroeste 0 851 0.7 95
2019-08-03 22:00:00 14.3 12 Noroeste 21 Noroeste 0 850.6 0.3 93
2019-08-03 21:00:00 15.6 17 Noroeste 28 Noroeste 0 850.5 0.1 89
2019-08-03 20:00:00 16.6 23 Noroeste 36 Noroeste 0 850.3 -0.3 85
2019-08-03 19:00:00 18.8 23 Noroeste 38 Noroeste 0 850.3 -0.4 78
2019-08-03 18:00:00 19.2 21 Noroeste 37 Noroeste 0 850.4 -0.2 77
2019-08-03 17:00:00 20.8 21 Noroeste 32 Oeste 0 850.6 -0.2 70
2019-08-03 16:00:00 22.1 19 Noroeste 30 Noroeste 0 850.7 -0.1 67
2019-08-03 15:00:00 23 13 Noroeste 23 Noroeste 0 850.6 -0.1 61
2019-08-03 14:00:00 22.6 9 Norte 20 Noroeste 0 850.8 0.1 51
2019-08-03 13:00:00 22.9 8 Este 26 Sudeste 0 850.8 0.1 45
2019-08-03 12:00:00 21.7 11 Sudeste 19 Sudeste 0 850.7 0.1 51
2019-08-03 11:00:00 20.4 9 Sudeste 17 Sudeste 0 850.7 0.2 54
2019-08-03 10:00:00 18.8 9 Sudeste 14 Sudeste 0 850.7 0.1 60
2019-08-03 09:00:00 15.7 8 Sudeste 12 Sur 0 850.6 0 76
2019-08-03 08:00:00 13.2 6 Sudeste 14 Sur 0 850.5 -0.4 83
2019-08-03 07:00:00 13.5 10 Sur 15 Sur 0 850.6 -0.4 84
2019-08-03 06:00:00 13.3 8 Sur 13 Sur 0 850.6 -0.6 86
2019-08-03 05:00:00 13.7 7 Sudeste 11 Sudeste 0 850.9 -0.6 88
2019-08-03 04:00:00 13.7 6 Sudeste 9 Sur 0 851 -1 88
2019-08-03 03:00:00 13.6 6 Sudeste 9 Sudeste 0 851.2 -0.9 87
2019-08-03 02:00:00 13.6 6 Sur 10 Sur 0 851.5 -0.7 87
2019-08-03 01:00:00 13.1 0 Calma 9 Noroeste 0 852 0.1 87
2019-08-03 00:00:00 13.9 8 Noroeste 13 Noroeste 0 852.1 0.3 88
2019-08-02 23:00:00 14.1 11 Noroeste 15 Noroeste 0 852.2 0.5 88
2019-08-02 22:00:00 14.7 11 Noroeste 17 Noroeste 0 851.9 0.2 88
2019-08-02 21:00:00 16.6 16 Noroeste 30 Noroeste 0 851.8 -0.1 82
2019-08-02 20:00:00 18.8 19 Noroeste 29 Noroeste 0 851.7 -0.3 71
2019-08-02 19:00:00 19.8 19 Noroeste 32 Noroeste 0 851.7 -0.4 66
2019-08-02 18:00:00 20.5 19 Noroeste 33 Noroeste 0 851.9 -0.2 64
2019-08-02 17:00:00 21 19 Noroeste 28 Noroeste 0 852 -0.1 66
2019-08-02 16:00:00 21.1 18 Noroeste 31 Noroeste 0 852.1 0 65
2019-08-02 15:00:00 20.3 17 Noroeste 24 Noroeste 0 852.1 0.2 65
2019-08-02 14:00:00 20.5 17 Noroeste 23 Norte 0 852.1 0.3 65
2019-08-02 13:00:00 21.8 8 Sudeste 23 Sudeste 0 852.1 0.5 38
2019-08-02 12:00:00 20.7 12 Sudeste 19 Sudeste 0 851.9 0.6 47
2019-08-02 11:00:00 19.4 10 Sudeste 16 Sudeste 0 851.8 0.8 51
2019-08-02 10:00:00 16.7 8 Sudeste 11 Sudeste 0 851.6 0.8 54
2019-08-02 09:00:00 13.9 5 Sudeste 8 Sudeste 0 851.3 0.6 64
2019-08-02 08:00:00 10.5 6 Sudeste 8 Sur 0 851 0.2 68
2019-08-02 07:00:00 11 5 Sudeste 9 Sur 0 850.8 -0.2 60
2019-08-02 06:00:00 10.5 6 Sudeste 11 Sudoeste 0 850.7 -0.4 66
2019-08-02 05:00:00 10.9 6 Sur 13 Sur 0 850.8 -0.6 61
2019-08-02 04:00:00 10 5 Sur 10 Sudeste 0 851 -0.5 63
2019-08-02 03:00:00 9.7 8 Sudeste 10 Sudeste 0 851.1 -0.4 83
2019-08-02 02:00:00 9.3 0 Calma 4 Nordeste 0 851.4 0.1 74
2019-08-02 01:00:00 9.6 0 Calma 4 Noroeste 0 851.5 0.7 80
2019-08-02 00:00:00 9.6 4 Noroeste 18 Noroeste 0 851.5 1 85
2019-08-01 23:00:00 11.2 10 Noroeste 18 Norte 0 851.3 1.2 90
2019-08-01 22:00:00 12.8 12 Noroeste 24 Noroeste 0 850.8 1 91
2019-08-01 21:00:00 13.6 16 Noroeste 28 Noroeste 0 850.5 0.8 90
2019-08-01 20:00:00 14.8 21 Noroeste 34 Noroeste 0 850.1 0.4 86
2019-08-01 19:00:00 16.6 23 Noroeste 34 Noroeste 0 849.8 0.2 76
2019-08-01 18:00:00 17.5 22 Noroeste 34 Noroeste 0 849.7 0.2 72
2019-08-01 17:00:00 17.8 19 Noroeste 30 Noroeste 0 849.7 0.3 70
2019-08-01 16:00:00 17.3 20 Noroeste 28 Noroeste 0 849.6 0.5 71
2019-08-01 15:00:00 16.5 18 Noroeste 26 Noroeste 0 849.5 0.5 78
2019-08-01 14:00:00 15.3 18 Noroeste 27 Norte 0 849.4 0.8 82
2019-08-01 13:00:00 14 17 Noroeste 26 Noroeste 0 849.1 0.8 86
2019-08-01 12:00:00 12.4 18 Norte 24 Norte 0 849 0.8 89
2019-08-01 11:00:00 15.6 9 Norte 13 Norte 0 848.6 0.5 75
2019-08-01 10:00:00 16.3 6 Sudeste 9 Sudeste 0 848.3 0.2 62
2019-08-01 09:00:00 12.3 2 Nordeste 5 Oeste 0 848.2 -0.1 73
2019-08-01 08:00:00 9.4 3 Noroeste 5 Sudoeste 0 848.1 -0.3 77
2019-08-01 07:00:00 9.1 2 Nordeste 8 Sudoeste 0 848.1 -0.7 78
2019-08-01 06:00:00 9.5 3 Sudeste 8 Sur 0 848.3 -0.8 78
2019-08-01 05:00:00 10.3 5 Sudeste 9 Sudeste 0 848.4 -1 82
2019-08-01 04:00:00 10.2 5 Sudeste 6 Sudeste 0 848.8 -0.8 82
2019-08-01 03:00:00 10 6 Sudeste 8 Sudeste 0 849.1 -0.7 85
2019-08-01 02:00:00 9.7 3 Sudeste 6 Noroeste 0 849.4 -0.6 88
2019-08-01 01:00:00 9.1 2 Noroeste 5 Sudeste 0 849.6 -0.3 86
2019-08-01 00:00:00 9.8 5 Noroeste 13 Norte 0 849.8 -0.1 95
2019-07-31 23:00:00 10.7 9 Noroeste 15 Noroeste 0 850 0.1 95
2019-07-31 22:00:00 11.3 10 Noroeste 19 Norte 0 849.9 -0.1 95
2019-07-31 21:00:00 12 12 Noroeste 20 Noroeste 0 849.9 -0.4 93
2019-07-31 20:00:00 13 13 Noroeste 21 Noroeste 0 849.9 -0.4 90
2019-07-31 19:00:00 13.5 16 Noroeste 26 Noroeste 0 850 -0.6 87
2019-07-31 18:00:00 13.6 21 Noroeste 29 Noroeste 0 850.3 -0.4 86
2019-07-31 17:00:00 15.5 18 Noroeste 30 Noroeste 0 850.3 -0.5 78
2019-07-31 16:00:00 15.8 15 Noroeste 25 Noroeste 0 850.6 -0.4 75
2019-07-31 15:00:00 15 17 Noroeste 25 Noroeste 0 850.7 -0.5 72
2019-07-31 14:00:00 15.7 16 Noroeste 22 Noroeste 0 850.8 -0.4 72
2019-07-31 13:00:00 15.9 11 Noroeste 18 Noroeste 0 851 -0.3 64
2019-07-31 12:00:00 16 7 Sudeste 14 Sudeste 0 851.2 0.1 56
2019-07-31 11:00:00 14.5 10 Sudeste 15 Sudeste 0 851.2 0.1 64
2019-07-31 10:00:00 12.3 8 Sudeste 14 Sudeste 0 851.3 0.4 74
2019-07-31 09:00:00 8.5 7 Sudeste 12 Sudeste 0 851.1 -0.1 89
2019-07-31 08:00:00 5.6 5 Sudeste 13 Sudeste 0 851.1 -0.4 96
2019-07-31 07:00:00 6.1 9 Sudeste 12 Sudeste 0 850.9 -0.8 95
2019-07-31 06:00:00 6.5 9 Sudeste 14 Sudeste 0 851.2 -0.7 95
2019-07-31 05:00:00 6.8 10 Sudeste 17 Sudeste 0 851.5 -0.7 95
2019-07-31 04:00:00 6.9 7 Sudeste 12 Sur 0 851.7 -0.8 95
2019-07-31 03:00:00 7.2 7 Sudeste 15 Sudeste 0 851.9 -0.8 95
2019-07-31 02:00:00 7.5 8 Sudeste 13 Sudeste 0 852.2 -0.5 95
2019-07-31 01:00:00 7.7 4 Este 9 Norte 0 852.5 0.2 95
2019-07-31 00:00:00 7.9 8 Norte 19 Noroeste 0 852.7 0.5 95
2019-07-30 23:00:00 8.1 13 Noroeste 19 Noroeste 0 852.7 0.8 94
2019-07-30 22:00:00 8.6 13 Noroeste 22 Norte 0 852.3 0.2 93
2019-07-30 21:00:00 9.5 15 Noroeste 28 Norte 0 852.2 -0.1 90
2019-07-30 20:00:00 10.9 16 Noroeste 31 Noroeste 0 851.9 -0.5 77
2019-07-30 19:00:00 13.3 17 Noroeste 32 Noroeste 0 852.1 -0.5 62
2019-07-30 18:00:00 13.9 19 Noroeste 31 Noroeste 0 852.3 -0.3 61
2019-07-30 17:00:00 13.9 17 Noroeste 28 Noroeste 0 852.4 -0.4 65
2019-07-30 16:00:00 13.6 15 Noroeste 27 Noroeste 0 852.6 0 65
2019-07-30 15:00:00 13.1 15 Noroeste 24 Noroeste 0 852.6 0.2 68
2019-07-30 14:00:00 12.4 15 Noroeste 31 Noroeste 0 852.8 0.7 74
2019-07-30 13:00:00 12 10 Norte 24 Noroeste 0 852.6 0.6 67
2019-07-30 12:00:00 10.3 9 Noroeste 20 Noroeste 0 852.4 1 69
2019-07-30 11:00:00 8.7 11 Noroeste 22 Noroeste 0 852.1 1 77
2019-07-30 10:00:00 7 15 Noroeste 28 Norte 0 852 1.2 81
2019-07-30 09:00:00 6.6 17 Noroeste 29 Noroeste 0 851.4 0.9 81
2019-07-30 08:00:00 5 17 Noroeste 38 Noroeste 0 851.1 0.5 90
2019-07-30 07:00:00 5.4 22 Noroeste 37 Noroeste 0 850.8 0.1 89
2019-07-30 06:00:00 5.2 22 Noroeste 39 Noroeste 0 850.5 -0.3 90
2019-07-30 05:00:00 5.4 18 Noroeste 31 Noroeste 0 850.6 0.1 90
2019-07-30 04:00:00 5.7 18 Noroeste 29 Noroeste 0 850.7 0.6 88
2019-07-30 03:00:00 5.8 12 Noroeste 31 Noroeste 0 850.8 0.9 91
2019-07-30 02:00:00 5.9 14 Noroeste 26 Noroeste 0 850.5 0.7 89
2019-07-30 01:00:00 5.8 13 Noroeste 37 Noroeste 0 850.1 0.8 87
2019-07-30 00:00:00 6 15 Noroeste 28 Noroeste 0 849.9 1 89
2019-07-29 23:00:00 7.4 16 Noroeste 27 Norte 0 849.8 1.3 91
2019-07-29 22:00:00 8.4 10 Noroeste 22 Norte 0 849.3 1.1 88
2019-07-29 21:00:00 9.6 12 Noroeste 30 Norte 0 848.9 0.8 77
2019-07-29 20:00:00 10.9 16 Noroeste 33 Noroeste 0 848.5 0.6 75
2019-07-29 19:00:00 12.5 14 Norte 32 Noroeste 0 848.2 0.3 64
2019-07-29 18:00:00 13.9 18 Noroeste 44 Noroeste 0 848.1 0.6 54
2019-07-29 17:00:00 13.2 24 Noroeste 43 Noroeste 0 847.9 0.9 56
2019-07-29 16:00:00 13.4 18 Noroeste 36 Noroeste 0 847.9 1.2 63
2019-07-29 15:00:00 13.3 21 Noroeste 47 Noroeste 0 847.5 1.1 58
2019-07-29 14:00:00 12.9 17 Norte 44 Noroeste 0 847 1.1 62
2019-07-29 13:00:00 13.4 21 Norte 37 Noroeste 0 846.7 1.3 61
2019-07-29 12:00:00 12.4 15 Norte 32 Norte 0 846.4 1.2 69
2019-07-29 11:00:00 11.8 17 Norte 31 Noroeste 0 845.9 0.8 72
2019-07-29 10:00:00 11.8 12 Noroeste 27 Noroeste 0 845.4 0.8 73
2019-07-29 09:00:00 12.2 7 Noroeste 26 Noroeste 0 845.2 0.3 77
2019-07-29 08:00:00 10.9 5 Sudeste 22 Sudoeste 0 845.1 0.2 82
2019-07-29 07:00:00 10.5 8 Sudeste 21 Noroeste 0 844.6 -0.7 80
2019-07-29 06:00:00 10.8 4 Sur 31 Sudeste 0 844.9 -0.6 81
2019-07-29 05:00:00 10.2 17 Sudeste 31 Este 0 844.9 -0.9 80
2019-07-29 04:00:00 9.4 13 Sudeste 19 Sur 0 845.3 -0.5 60
2019-07-29 03:00:00 9.9 8 Sudeste 21 Sudeste 0 845.5 -0.4 54
2019-07-29 02:00:00 10.6 6 Sudeste 19 Sudeste 0 845.8 -0.2 75
2019-07-29 01:00:00 11.7 10 Sudeste 26 Sudeste 0 845.8 0.2 72
2019-07-29 00:00:00 13 7 Sudeste 24 Sudeste 0 845.9 0.3 62
2019-07-28 23:00:00 13.5 11 Sudeste 25 Sudeste 0 846 0.5 58
2019-07-28 22:00:00 14.8 13 Sudeste 24 Sudeste 0 845.6 0.1 49
2019-07-28 21:00:00 16 7 Sur 18 Norte 0 845.6 -0.1 52
2019-07-28 20:00:00 18.1 6 Este 24 Sur 0 845.5 -0.6 47
2019-07-28 19:00:00 18.2 6 Sur 27 Norte 0 845.5 -0.7 52
2019-07-28 18:00:00 17.8 13 Sudeste 31 Noroeste 0 845.7 -0.7 52
2019-07-28 17:00:00 18.2 9 Norte 24 Noroeste 0 846.1 -0.5 52
2019-07-28 16:00:00 18.2 9 Norte 24 Norte 0 846.2 -0.6 51
2019-07-28 15:00:00 17.4 7 Sudeste 33 Sudeste 0 846.4 -0.3 53
2019-07-28 14:00:00 16.5 6 Norte 21 Noroeste 0 846.6 -0.2 56
2019-07-28 13:00:00 15.9 10 Sudeste 24 Sudeste 0 846.8 0 63
2019-07-28 12:00:00 14.7 12 Sudeste 22 Sudeste 0 846.7 0.1 63
2019-07-28 11:00:00 13 9 Sudeste 18 Sudeste 0 846.8 0.2 69
2019-07-28 10:00:00 10.8 10 Sudeste 16 Sudeste 0 846.8 0.3 76
2019-07-28 09:00:00 8.2 8 Sudeste 13 Sudeste 0 846.6 -0.1 87
2019-07-28 08:00:00 4.9 2 Sudeste 10 Sur 0 846.6 -0.3 92
2019-07-28 07:00:00 4.7 6 Sudeste 10 Sudeste 0 846.5 -0.5 93
2019-07-28 06:00:00 5 0 Calma 13 Sur 0 846.7 -0.8 90
2019-07-28 05:00:00 5.1 5 Sudeste 11 Sur 0 846.9 -0.6 90
2019-07-28 04:00:00 4.8 8 Sudeste 11 Sur 0 847 -0.6 91
2019-07-28 03:00:00 4.3 0 Calma 10 Oeste 0 847.5 -0.2 89
2019-07-28 02:00:00 5.2 3 Noroeste 8 Noroeste 0 847.5 0 87
2019-07-28 01:00:00 7.1 6 Noroeste 10 Noroeste 0 847.6 0.6 91
2019-07-28 00:00:00 8.1 7 Noroeste 17 Noroeste 0 847.7 0.9 91
2019-07-27 23:00:00 8.2 10 Noroeste 21 Norte 0 847.5 1.1 93
2019-07-26 12:00:00 10.7 16 Noroeste -- -- 0.2 848.8 0.2 85
2019-07-26 11:00:00 9.8 16 Noroeste 28 Noroeste 0 848.9 0.6 90
2019-07-26 10:00:00 9.4 18 Noroeste 25 Noroeste 0 848.8 0.6 89
2019-07-26 09:00:00 9.2 19 Noroeste 26 Noroeste 0 848.6 0.1 85
2019-07-26 08:00:00 8.5 15 Noroeste 21 Noroeste 0 848.3 -0.1 95
2019-07-26 07:00:00 8.7 12 Noroeste 21 Noroeste 0 848.2 -0.4 95
2019-07-26 06:00:00 8.9 12 Noroeste 17 Noroeste 0 848.5 -0.3 95
2019-07-26 05:00:00 9.3 10 Noroeste 14 Noroeste 0 848.4 -0.9 95
2019-07-26 04:00:00 10.1 8 Noroeste 19 Norte 0 848.6 -0.8 95
2019-07-26 03:00:00 10.8 10 Noroeste 19 Noroeste 0 848.8 -0.7 95
2019-07-26 02:00:00 11.2 8 Noroeste 18 Noroeste 0.2 849.3 -0.1 95
2019-07-26 01:00:00 11.7 10 Noroeste 17 Noroeste 0 849.4 0.4 95
2019-07-26 00:00:00 12.4 12 Noroeste 16 Noroeste 0.4 849.5 0.8 94